AirNav   Advertisement
 
 818 users online  

AL05 Sehoy Airport
Hurtsboro, Alabama, USA


FAA INFORMATION EFFECTIVE 20 JULY 2017

Location

FAA Identifier: AL05
Lat/Long: 32-13-16.8096N / 085-28-18.4188W
32-13.280160N / 085-28.306980W
32.2213360 / -85.4717830
(estimated)
Elevation: 331 ft. / 101 m (estimated)
Variation: 01E (1985)
From city: 3 miles SW of HURTSBORO, AL
Time zone: UTC -5 (UTC -6 during Standard Time)
Zip code: 36860

Airport Operations

Airport use: Private use. Permission required prior to landing
Control tower: no
ARTCC: ATLANTA CENTER
FSS: ANNISTON FLIGHT SERVICE STATION
Attendance: UNATNDD
Wind indicator: lighted
Segmented circle: yes
Lights: RWY LGTS ON REQ; MON-FRI FROM 0730 TO 1530 CALL 334-253-2100. AFTER HRS AND WKENDS CALL 706-773-3167.
Beacon: white-green (lighted land airport)
ROTG BCN ON REQ; MON-FRI FROM 0730 TO 1530 CALL 334-253-2100. AFTER HRS AND WKENDS CALL 706-773-3167.

Nearby radio navigation aids

VOR radial/distance  VOR name  Freq  Var
TGEr146/18.7TUSKEGEE VOR/DME117.3002E
EUFr311/23.8EUFAULA VORTAC109.2002E
LSFr257/25.2LAWSON VOR/DME111.4002W
CSGr223/33.0COLUMBUS VORTAC117.1001E

 
NDB name  Hdg/Dist  Freq  Var  ID
LAWSON261/23.233502WAWS .- .-- ...
BLOOD055/39.936501WTOI - --- ..

Airport Services

Parking: hangars

Runway Information

Runway 4/22

Dimensions: 5000 x 75 ft. / 1524 x 23 m
Surface: asphalt, in good condition
Runway edge lights: medium intensity
RUNWAY 4  RUNWAY 22
Latitude: 32-12.963720N32-13.596600N
Longitude: 085-28.617360W085-27.996600W
Elevation: 331.0 ft.324.0 ft.
Traffic pattern: leftleft
Markings: basic, in good conditionbasic, in good condition
Visual slope indicator: 2-box VASI on left2-box VASI on left
Touchdown point: yes, no lightsyes, no lights
Obstructions: 52 ft. trees, 800 ft. from runway, 300 ft. left of centerline, 11:1 slope to clear57 ft. trees, 750 ft. from runway, 275 ft. left of centerline, 9:1 slope to clear

Airport Ownership and Management from official FAA records

Ownership: Privately-owned
Owner: STEVE WILLIAMS
6475 OLD WEST POINT ROAD
LA GRANGE, GA 30240
Phone 706-884-6398
Manager: STEVE WILLIAMS
6475 OLD WEST POINT ROAD
LA GRANGE, GA 30240
Phone 706-884-6398

Airport Operational Statistics

Aircraft operations: avg 22/month *
92% local general aviation
8% transient general aviation
* for 12-month period ending 07 February 1990

Instrument Procedures

There are no published instrument procedures at AL05.

Some nearby airports with instrument procedures:

06A - Moton Field Municipal Airport (18 nm NW)
11A - Clayton Municipal Airport (20 nm S)
KAUO - Auburn University Regional Airport (24 nm N)
KEUF - Weedon Field Airport (24 nm SE)
KLSF - Lawson Army Airfield (Fort Benning) (25 nm E)
 
Loc | Ops | Rwys | IFR | FBO | Links
Com | Nav | Svcs | Stats | Notes


 
Area around AL05 (Sehoy Airport)
 
Road maps at: MapQuest Bing Google
 
Aerial photo
WARNING: Photo may not be current or correct
Aerial photo of AL05 (Sehoy Airport)
Photo courtesy of AirNav, LLC
Photo taken 05-May-2011
looking west.

Do you have a better or more recent aerial photo of Sehoy Airport that you would like to share? If so, please send us your photo.

 
Sectional chart

 
Airport distance calculator
Flying to Sehoy Airport? Find the distance to fly.

From to AL05

Sunrise and sunset
Times for 21-Jul-2017
 Local
(UTC-5)
 Zulu
(UTC)
Morning civil twilight05:2310:23
Sunrise05:5110:51
Sunset19:4600:46
Evening civil twilight20:1301:13

Current date and time
Zulu (UTC)  22-Jul-2017 02:49:40
Local (UTC-5)  21-Jul-2017 21:49:40
 
METAR
KEUF 
24nm SE 
220158Z AUTO 20004KT CLR 25/23 A3002 RMK AO2 SLP163 T02500233
KAUO 
24nm N 
220156Z AUTO 16007KT 10SM CLR 24/22 A3006 RMK AO2 TSE20RAB13E25 SLP185 P0000 T02440222
KLSF 
25nm E 
220158Z AUTO 00000KT 10SM FEW170 25/24 A3002 RMK AO2 SLP169 T02490236
KCSG 
32nm NE 
220151Z 20005KT 10SM SCT065 SCT075 BKN090 27/23 A3003 RMK AO2 LTG DSNT N AND NE SLP163 T02670228
KTOI 
36nm SW 
220153Z AUTO 17005KT 10SM CLR 23/22 A3005 RMK AO2 SLP169 T02330222
KMXF 
46nm W 
220158Z AUTO 16003KT 10SM SCT190 24/23 A3002 RMK AO2 SLP167 T02370228
KMGM 
47nm W 
220205Z 21003KT 10SM FEW005 24/21 A3004 RMK AO2 T02390211
TAF
KLSF 
25nm E 
220100Z 2201/2307 23006KT 9999 SCT040 QNH2993INS TEMPO 2201/2202 24012G18KT 4800 -TSRA BKN020CB BECMG 2209/2210 23006KT 4800 BR BKN020 BKN250 QNH3002INS BECMG 2213/2214 24009KT 9999 NSW SCT030 SCT250 QNH3003INS BECMG 2221/2222 22009KT 9999 VCSH BKN040 QNH3000INS BECMG 2223/2224 21006KT 9999 NSW BKN030 QNH3001INS TX34/2221Z TN23/2211Z
NOTAMs
Click for the latest NOTAMs
NOTAMs are issued by the DoD/FAA and will open in a separate window not controlled by AirNav.

 

 
 

Would you like to see your business listed on this page?

 If your business provides an interesting product or service to pilots, flight crews, aircraft, or users of the Sehoy Airport, you should consider listing it here.  To start the listing process, click on the button below
 
Add a business
 

Other Pages about Sehoy Airport

Update a link
 
Copyright © AirNav, LLC. All rights reserved. Privacy Policy  Contact